Ames, IA (50010)

5:29 AM CST on January 29, 2015 (GMT -0600)
Garden District | Change Station
CLOSE
Current Station
Personal Weather Station
Location: Ames, IA
Elevation: 968 ft
Nearby Weather Stations
Active Advisory: Wind Advisory

Elev 968 ft 42.04 °N, 93.61 °W | Updated 10 seconds ago

Overcast
Overcast
33.6 °F
Feels Like 26 °F
N
9.2
Wind Variable Wind from NW
Gusts 15.2 mph

Today
High -- | Low -- °F
--% Chance of Precip.
Yesterday
High -- | Low -- °F
Precip. -- in
7:30 AM 5:25 PM
Waxing Gibbous, 73% visible
Pressure 30.03 in
Visibility 10.0 miles
Clouds Overcast 1500 ft
Windchill 26 °F
Dew Point 24 °F
Humidity 68%
Rainfall 0.00 in
Snow Depth Not available.
UV 0 out of 12
Pollen 2.10 out of 12
Air Quality Not available.
Flu Activity Not available.
SPECI KAMW 291115Z AUTO 32019G33KT 10SM OVC015 01/M01 A3003 RMK AO2 PK WND 33033/1113 T00111011

More Conditions Fewer Conditions

Pressure 30.03 in
Visibility 10.0 miles
Clouds Overcast 1500 ft
Windchill 26 °F
Dew Point 24 °F
Humidity 68%
Rainfall 0.00 in
Snow Depth Not available.
UV 0 out of 12
Pollen 2.10 out of 12
Air Quality Not available.
Flu Activity Not available.
SPECI KAMW 291115Z AUTO 32019G33KT 10SM OVC015 01/M01 A3003 RMK AO2 PK WND 33033/1113 T00111011

More Conditions Fewer Conditions

10-Day Weather Forecast

Almanac

Astronomy

Jan. 29, 2015 Rise Set
Actual Time
Civil Twilight
Nautical Twilight
Astronomical Twilight
Moon
Length of Visible Light
Length of Day
Tomorrow will be .
, % of the Moon is Illuminated

Today's Extremes

State Highs State Lows

Community

WunderPhotos

Upload Photos

1,791,406 photos uploaded!

WunderBlogs® & News

Nearby

Air Quality

  Air Quality AQ Index Pollutant
Not available.

Snow Depth

Station Depth Elevation

Earthquake Activity

City Distance Mag. Time & Date
Minimum magnitude displayed is 2.5.

Coastal Water Temperatures

Place Temperature

Nearby Weather Stations